URD weather

Burg Feuerstein Airport
Ebermannstadt, Bavaria, Germany

Public forecast

Using degrees Celsius for public forecast. Weather courtesy of forecast.io.

METAR (pilot weather report)

Closest report is Nuremberg Airport, 17.9 nm (33.1 km) S. Retrieved 2019/07/22 20:20 UTC (15 minutes ago):

EDDN 222020Z VRB02KT CAVOK 21/11 Q1023

TAF (pilot weather forecast)

Closest forecast is Nuremberg Airport, 17.9 nm (33.1 km) S. Retrieved 2019/07/22 18:27 UTC (2 hours ago):

TAF EDDN 221700Z 2218/2318 31008KT CAVOK BECMG 2218/2221 VRB03KT